Time;durP1;ratioP1;P1;durP2;ratioP2;P2;SDS_P1;SDS_P2;PMS_P1;PMS_P2;Temp;Humidity;BMP_temperature;BMP_pressure;BME280_temperature;BME280_humidity;BME280_pressure;Samples;Min_cycle;Max_cycle;Signal;HPM_P1;HPM_P2
2021/12/19 00:00:56;;;;;;;18.4;9.2;;;;;;;;;;;;;
2021/12/19 00:03:37;;;;;;;17.9;9.5;;;;;;;;;;;;;
2021/12/19 00:08:41;;;;;;;23.5;9.6;;;;;;;;;;;;;
2021/12/19 00:10:36;;;;;;;13.3;8.3;;;;;;;;;;;;;
2021/12/19 00:13:01;;;;;;;11.9;7.3;;;;;;;;;;;;;
2021/12/19 00:15:27;;;;;;;11.2;7.9;;;;;;;;;;;;;
2021/12/19 00:17:52;;;;;;;12.7;6.9;;;;;;;;;;;;;
2021/12/19 00:20:17;;;;;;;12.5;6.5;;;;;;;;;;;;;
2021/12/19 00:22:42;;;;;;;9.2;5.7;;;;;;;;;;;;;
2021/12/19 00:25:08;;;;;;;10.3;6.3;;;;;;;;;;;;;
2021/12/19 00:30:25;;;;;;;9.9;5.7;;;;;;;;;;;;;
2021/12/19 00:32:42;;;;;;;8.6;5.3;;;;;;;;;;;;;
2021/12/19 00:35:06;;;;;;;9.6;5.2;;;;;;;;;;;;;
2021/12/19 00:38:06;;;;;;;9.6;5.2;;;;;;;;;;;;;
2021/12/19 00:40:22;;;;;;;11.2;5.9;;;;;;;;;;;;;
2021/12/19 00:43:05;;;;;;;10.2;6;;;;;;;;;;;;;
2021/12/19 00:45:28;;;;;;;8.4;5.4;;;;;;;;;;;;;
2021/12/19 00:47:49;;;;;;;9;5.7;;;;;;;;;;;;;
2021/12/19 00:50:15;;;;;;;9.4;5.5;;;;;;;;;;;;;
2021/12/19 00:52:40;;;;;;;9.4;5.4;;;;;;;;;;;;;
2021/12/19 00:57:42;;;;;;;8.7;4.9;;;;;;;;;;;;;
2021/12/19 01:00:07;;;;;;;7.3;4.3;;;;;;;;;;;;;
2021/12/19 01:02:33;;;;;;;6;4.4;;;;;;;;;;;;;
2021/12/19 01:04:59;;;;;;;9.3;4.9;;;;;;;;;;;;;
2021/12/19 01:07:24;;;;;;;9.7;5;;;;;;;;;;;;;
2021/12/19 01:09:50;;;;;;;8.1;4.8;;;;;;;;;;;;;
2021/12/19 01:12:15;;;;;;;8.1;4.9;;;;;;;;;;;;;
2021/12/19 01:14:41;;;;;;;7.3;4.7;;;;;;;;;;;;;
2021/12/19 01:17:07;;;;;;;8.3;4.6;;;;;;;;;;;;;
2021/12/19 01:19:32;;;;;;;6.8;4.5;;;;;;;;;;;;;
2021/12/19 01:21:57;;;;;;;7.7;4.6;;;;;;;;;;;;;
2021/12/19 01:24:22;;;;;;;7.7;5;;;;;;;;;;;;;
2021/12/19 01:26:47;;;;;;;9;5.2;;;;;;;;;;;;;
2021/12/19 01:29:12;;;;;;;8.8;4.9;;;;;;;;;;;;;
2021/12/19 01:31:38;;;;;;;7.5;4.8;;;;;;;;;;;;;
2021/12/19 01:34:03;;;;;;;8.3;4.5;;;;;;;;;;;;;
2021/12/19 01:36:28;;;;;;;8.2;5;;;;;;;;;;;;;
2021/12/19 01:38:53;;;;;;;5.8;4.2;;;;;;;;;;;;;
2021/12/19 01:41:19;;;;;;;8;4.5;;;;;;;;;;;;;
2021/12/19 01:43:44;;;;;;;8.8;5.5;;;;;;;;;;;;;
2021/12/19 01:48:51;;;;;;;7.7;5.3;;;;;;;;;;;;;
2021/12/19 01:51:16;;;;;;;11;6.6;;;;;;;;;;;;;
2021/12/19 01:53:42;;;;;;;9.9;6.2;;;;;;;;;;;;;
2021/12/19 01:58:42;;;;;;;15.1;6.4;;;;;;;;;;;;;
2021/12/19 02:01:05;;;;;;;12.4;7.1;;;;;;;;;;;;;
2021/12/19 02:03:30;;;;;;;10.4;6.7;;;;;;;;;;;;;
2021/12/19 02:05:55;;;;;;;11.1;6.5;;;;;;;;;;;;;
2021/12/19 02:08:21;;;;;;;11.4;7.1;;;;;;;;;;;;;
2021/12/19 02:10:46;;;;;;;12.4;7.2;;;;;;;;;;;;;
2021/12/19 02:13:11;;;;;;;13.7;8;;;;;;;;;;;;;
2021/12/19 02:15:36;;;;;;;12.4;7.5;;;;;;;;;;;;;
2021/12/19 02:18:04;;;;;;;14.2;8.1;;;;;;;;;;;;;
2021/12/19 02:20:28;;;;;;;15.1;8;;;;;;;;;;;;;
2021/12/19 02:22:54;;;;;;;11.4;7;;;;;;;;;;;;;
2021/12/19 02:25:19;;;;;;;10.6;6.1;;;;;;;;;;;;;
2021/12/19 02:27:45;;;;;;;12.9;7;;;;;;;;;;;;;
2021/12/19 02:30:10;;;;;;;9.6;6;;;;;;;;;;;;;
2021/12/19 02:32:36;;;;;;;9.7;5.5;;;;;;;;;;;;;
2021/12/19 02:35:04;;;;;;;8.6;5.2;;;;;;;;;;;;;
2021/12/19 02:37:54;;;;;;;8.8;5.5;;;;;;;;;;;;;
2021/12/19 02:40:22;;;;;;;10.6;6.3;;;;;;;;;;;;;
2021/12/19 02:49:32;;;;;;;11.4;6.5;;;;;;;;;;;;;
2021/12/19 02:51:58;;;;;;;12.9;6.3;;;;;;;;;;;;;
2021/12/19 02:54:23;;;;;;;12;6.5;;;;;;;;;;;;;
2021/12/19 02:56:50;;;;;;;13.8;6.9;;;;;;;;;;;;;
2021/12/19 02:59:14;;;;;;;13.2;6.8;;;;;;;;;;;;;
2021/12/19 03:01:44;;;;;;;13.2;6.4;;;;;;;;;;;;;
2021/12/19 03:04:07;;;;;;;12.5;6.5;;;;;;;;;;;;;
2021/12/19 03:06:32;;;;;;;13.3;6.5;;;;;;;;;;;;;
2021/12/19 03:09:03;;;;;;;12.8;6.1;;;;;;;;;;;;;
2021/12/19 03:18:42;;;;;;;12.3;6.2;;;;;;;;;;;;;
2021/12/19 03:21:10;;;;;;;9.8;5.6;;;;;;;;;;;;;
2021/12/19 03:23:32;;;;;;;8.5;5.3;;;;;;;;;;;;;
2021/12/19 03:25:57;;;;;;;11.1;5.7;;;;;;;;;;;;;
2021/12/19 03:28:22;;;;;;;9.4;5.3;;;;;;;;;;;;;
2021/12/19 03:30:48;;;;;;;9.4;5.3;;;;;;;;;;;;;
2021/12/19 03:33:13;;;;;;;10.4;5.1;;;;;;;;;;;;;
2021/12/19 03:35:39;;;;;;;13;5.8;;;;;;;;;;;;;
2021/12/19 03:38:04;;;;;;;10.7;6.1;;;;;;;;;;;;;
2021/12/19 03:40:39;;;;;;;8.6;5.3;;;;;;;;;;;;;
2021/12/19 03:42:57;;;;;;;11.4;6;;;;;;;;;;;;;
2021/12/19 03:45:23;;;;;;;10.9;5.6;;;;;;;;;;;;;
2021/12/19 03:47:48;;;;;;;11.5;5.9;;;;;;;;;;;;;
2021/12/19 03:50:19;;;;;;;8.8;4.9;;;;;;;;;;;;;
2021/12/19 03:52:41;;;;;;;9;4.7;;;;;;;;;;;;;
2021/12/19 03:55:08;;;;;;;9.5;5.1;;;;;;;;;;;;;
2021/12/19 03:57:33;;;;;;;14.2;6.1;;;;;;;;;;;;;
2021/12/19 03:59:58;;;;;;;11.6;5.8;;;;;;;;;;;;;
2021/12/19 04:02:31;;;;;;;13.3;6.6;;;;;;;-3.4;92.09961;950.2408;;;;
2021/12/19 04:04:56;;;;;;;10.6;5.4;;;;;;;-3.27;91.56348;950.2087;;;;
2021/12/19 04:07:21;;;;;;;13.2;6.4;;;;;;;-3.09;90.66309;950.1914;;;;
2021/12/19 04:09:47;;;;;;;11.3;6.3;;;;;;;-3.17;90.96582;950.1548;;;;
2021/12/19 04:12:12;;;;;;;12.7;6.9;;;;;;;-3.23;91.09766;950.1774;;;;
2021/12/19 04:14:38;;;;;;;12;6.1;;;;;;;-3.42;91.80762;950.1344;;;;
2021/12/19 04:17:05;;;;;;;14.3;6.4;;;;;;;-3.19;91.02832;950.1278;;;;
2021/12/19 04:19:31;;;;;;;10;4.8;;;;;;;-3.3;90.86133;950.0692;;;;
2021/12/19 04:21:56;;;;;;;12;5.9;;;;;;;-3.4;91.31445;950.0035;;;;
2021/12/19 04:24:21;;;;;;;7.4;4.4;;;;;;;-3.28;91.35156;950.0642;;;;
2021/12/19 04:26:46;;;;;;;6.2;3.5;;;;;;;-3.46;91.34668;949.9916;;;;
2021/12/19 04:29:12;;;;;;;4.5;2.5;;;;;;;-3.56;91.7998;949.9387;;;;
2021/12/19 04:31:37;;;;;;;4.2;2.5;;;;;;;-3.34;91.72461;949.9395;;;;
2021/12/19 04:34:04;;;;;;;4.2;2.2;;;;;;;-3.2;91.05957;949.8555;;;;
2021/12/19 04:36:33;;;;;;;4.6;2.5;;;;;;;-3.26;90.95703;949.8447;;;;
2021/12/19 04:43:32;;;;;;;6.1;3.5;;;;;;;-3.16;90.71387;949.7819;;;;
2021/12/19 04:50:57;;;;;;;7.3;3.2;;;;;;;-3.28;90.76563;949.8067;;;;
2021/12/19 04:54:44;;;;;;;4.6;2.9;;;;;;;-3.3;91.31445;949.7401;;;;
2021/12/19 04:57:04;;;;;;;4.2;2.6;;;;;;;-3.27;91.68457;949.7598;;;;
2021/12/19 04:59:48;;;;;;;4.6;2.9;;;;;;;-3.02;90.98828;949.7364;;;;
2021/12/19 05:02:05;;;;;;;6.7;3.4;;;;;;;-2.99;89.83301;949.7749;;;;
2021/12/19 05:04:12;;;;;;;6.9;4.2;;;;;;;-2.93;89.16211;949.8508;;;;
2021/12/19 05:06:50;;;;;;;6.8;4;;;;;;;-2.88;88.49707;949.8365;;;;
2021/12/19 05:16:22;;;;;;;11.4;6.3;;;;;;;-3.34;92.31152;949.7841;;;;
2021/12/19 05:18:50;;;;;;;8.3;5.3;;;;;;;-3.34;92.29004;949.8807;;;;
2021/12/19 05:21:29;;;;;;;5.5;4.1;;;;;;;-3.24;91.72559;949.9022;;;;
2021/12/19 05:26:21;;;;;;;4.4;3.1;;;;;;;-3.35;91.03906;949.8104;;;;
2021/12/19 05:28:48;;;;;;;4.1;2.9;;;;;;;-3.24;91.18262;949.8058;;;;
2021/12/19 05:31:15;;;;;;;4.4;2.9;;;;;;;-3.1;90.01074;949.851;;;;
2021/12/19 05:33:40;;;;;;;4.8;3.2;;;;;;;-3.26;90.58105;950.0217;;;;
2021/12/19 05:44:09;;;;;;;7.4;4.2;;;;;;;-3.23;90.39063;950.0988;;;;
2021/12/19 05:45:50;;;;;;;6.5;2.9;;;;;;;-3.17;89.70508;950.1019;;;;
2021/12/19 05:48:15;;;;;;;4.6;2.3;;;;;;;-3.14;89.30176;950.1615;;;;
2021/12/19 05:50:43;;;;;;;5.2;2.4;;;;;;;-3.17;89.44043;950.1373;;;;
2021/12/19 05:53:08;;;;;;;3.9;2.7;;;;;;;-3.35;90.09961;950.0611;;;;
2021/12/19 05:55:33;;;;;;;5.5;2.5;;;;;;;-3.31;90.31738;950.0425;;;;
2021/12/19 05:57:58;;;;;;;3.6;2.7;;;;;;;-3.45;91.33594;949.9814;;;;
2021/12/19 06:00:24;;;;;;;4.8;2.9;;;;;;;-3.47;92.0166;949.9419;;;;
2021/12/19 06:02:49;;;;;;;4.1;2.7;;;;;;;-3.21;91.73145;949.9188;;;;
2021/12/19 06:05:16;;;;;;;5.2;2.6;;;;;;;-3.16;91.31055;950.0508;;;;
2021/12/19 06:07:41;;;;;;;5.5;3.2;;;;;;;-3.07;90.71289;950.0331;;;;
2021/12/19 06:11:10;;;;;;;5;2.8;;;;;;;-3.1;90.375;950.0831;;;;
2021/12/19 06:13:35;;;;;;;6.7;3.7;;;;;;;-3.37;90.95605;949.9977;;;;
2021/12/19 06:16:07;;;;;;;5.9;3.3;;;;;;;-3.47;91.35254;949.9436;;;;
2021/12/19 06:18:32;;;;;;;9.2;4.4;;;;;;;-3.61;92.24121;949.7963;;;;
2021/12/19 06:21:03;;;;;;;7.7;5;;;;;;;-3.77;93.16406;949.8148;;;;
2021/12/19 06:23:28;;;;;;;7.2;5;;;;;;;-3.73;93.41895;949.818;;;;
2021/12/19 06:25:53;;;;;;;10.6;7;;;;;;;-3.68;93.16406;949.7629;;;;
2021/12/19 06:28:18;;;;;;;8.5;6.3;;;;;;;-3.75;93.00586;949.8475;;;;
2021/12/19 06:30:46;;;;;;;8;6.4;;;;;;;-3.78;93.1084;949.827;;;;
2021/12/19 06:33:11;;;;;;;8.8;6.1;;;;;;;-3.65;92.77246;949.9305;;;;
2021/12/19 06:35:37;;;;;;;10.5;7;;;;;;;-3.65;92.3418;949.8989;;;;
2021/12/19 06:38:02;;;;;;;8.2;6;;;;;;;-3.62;92.38086;949.8895;;;;
2021/12/19 06:40:28;;;;;;;9.3;5.7;;;;;;;-3.73;92.40137;949.8975;;;;
2021/12/19 06:42:53;;;;;;;8.3;6.3;;;;;;;-3.64;92.41211;949.9666;;;;
2021/12/19 06:45:21;;;;;;;8.8;6.6;;;;;;;-3.69;92.09082;949.9604;;;;
2021/12/19 06:47:47;;;;;;;10;6.9;;;;;;;-3.65;92.05469;949.9342;;;;
2021/12/19 06:50:15;;;;;;;16.8;8.5;;;;;;;-3.79;92.69824;949.9397;;;;
2021/12/19 06:52:38;;;;;;;10.6;7.2;;;;;;;-3.71;92.59473;949.8473;;;;
2021/12/19 06:55:04;;;;;;;8.2;5.7;;;;;;;-3.78;92.7666;949.842;;;;
2021/12/19 06:57:29;;;;;;;11;7.7;;;;;;;-3.85;93.53418;949.7997;;;;
2021/12/19 06:59:55;;;;;;;12.1;7.6;;;;;;;-3.83;93.80273;949.8178;;;;
2021/12/19 07:02:21;;;;;;;19.2;10.3;;;;;;;-3.77;94.08203;949.8309;;;;
2021/12/19 07:04:46;;;;;;;10.9;6.3;;;;;;;-3.71;94.16309;949.8031;;;;
2021/12/19 07:07:11;;;;;;;9.4;5.9;;;;;;;-3.63;94.03711;949.8055;;;;
2021/12/19 07:09:38;;;;;;;7;4.9;;;;;;;-3.63;93.55176;949.8361;;;;
2021/12/19 07:12:04;;;;;;;8.6;5.3;;;;;;;-3.66;93.83203;949.7238;;;;
2021/12/19 07:14:29;;;;;;;13.9;8.5;;;;;;;-3.6;94.1875;949.7227;;;;
2021/12/19 07:16:54;;;;;;;23.2;14;;;;;;;-3.51;95.23438;949.715;;;;
2021/12/19 07:19:22;;;;;;;31.8;16.4;;;;;;;-3.33;94.86719;949.6644;;;;
2021/12/19 07:21:47;;;;;;;41;21;;;;;;;-3.23;93.66406;949.7036;;;;
2021/12/19 07:24:16;;;;;;;28.3;15.2;;;;;;;-3.3;93.2041;949.7122;;;;
2021/12/19 07:26:41;;;;;;;16.9;10.1;;;;;;;-3.15;93.36914;949.6783;;;;
2021/12/19 07:29:06;;;;;;;11.3;6.8;;;;;;;-3.19;92.39941;949.7042;;;;
2021/12/19 07:31:35;;;;;;;11.1;6.6;;;;;;;-3.19;92.35449;949.6164;;;;
2021/12/19 07:33:57;;;;;;;9.9;6.1;;;;;;;-2.92;91.46289;949.647;;;;
2021/12/19 07:36:25;;;;;;;15.7;9.2;;;;;;;-2.74;90.24121;949.7162;;;;
2021/12/19 07:38:55;;;;;;;15;8.6;;;;;;;-2.55;89.40723;949.699;;;;
2021/12/19 07:41:13;;;;;;;22.4;13.7;;;;;;;-2.51;89.31738;949.711;;;;
2021/12/19 07:43:38;;;;;;;23.1;13.6;;;;;;;-2.37;88.73535;949.7405;;;;
2021/12/19 07:46:03;;;;;;;18;10.9;;;;;;;-2.33;87.95801;949.718;;;;
2021/12/19 07:48:29;;;;;;;19.9;10.9;;;;;;;-2.38;88.05957;949.6746;;;;
2021/12/19 07:50:55;;;;;;;13.1;6.8;;;;;;;-2.61;90.00293;949.668;;;;
2021/12/19 07:53:20;;;;;;;14.6;9.5;;;;;;;-2.57;89.77832;949.6322;;;;
2021/12/19 07:55:46;;;;;;;15.2;9.3;;;;;;;-2.65;90.47949;949.5658;;;;
2021/12/19 07:58:11;;;;;;;13.5;8.1;;;;;;;-2.7;90.46973;949.5572;;;;
2021/12/19 08:00:36;;;;;;;15.9;8.9;;;;;;;-2.58;91.19336;949.5253;;;;
2021/12/19 08:03:01;;;;;;;26.8;13.4;;;;;;;-2.53;91.0957;949.4199;;;;
2021/12/19 08:05:29;;;;;;;15.6;8.3;;;;;;;-2.55;91.67676;949.4891;;;;
2021/12/19 08:08:01;;;;;;;20.7;10.8;;;;;;;-2.44;91.62305;949.4217;;;;
2021/12/19 08:11:42;;;;;;;39.7;18.6;;;;;;;-2.17;90.99512;949.4103;;;;
2021/12/19 08:12:44;;;;;;;35.7;17.1;;;;;;;-1.44;90.7207;949.2742;;;;
2021/12/19 08:15:15;;;;;;;55;24.3;;;;;;;0.01;83.9834;949.2341;;;;
2021/12/19 08:17:38;;;;;;;55;25.1;;;;;;;0.79;77.41895;949.1972;;;;
2021/12/19 08:20:09;;;;;;;20.3;12.6;;;;;;;1.57;73.45801;949.1816;;;;
2021/12/19 08:22:36;;;;;;;10.6;7.6;;;;;;;2.05;70.46387;949.1047;;;;
2021/12/19 08:25:01;;;;;;;11.8;7.8;;;;;;;2.19;68.89648;949.1011;;;;
2021/12/19 08:27:29;;;;;;;17.2;11.4;;;;;;;1.64;70.31641;949.0392;;;;
2021/12/19 08:29:54;;;;;;;18.8;11.7;;;;;;;2.02;70.10156;949.0002;;;;
2021/12/19 08:32:24;;;;;;;16.2;10.4;;;;;;;2.44;69.03906;948.883;;;;
2021/12/19 08:34:50;;;;;;;11.5;7.4;;;;;;;2.4;69.86133;948.8256;;;;
2021/12/19 08:37:16;;;;;;;10.2;6.5;;;;;;;1.39;73.62793;948.8077;;;;
2021/12/19 08:39:41;;;;;;;14.9;8.8;;;;;;;2.14;72.0127;948.7992;;;;
2021/12/19 08:42:09;;;;;;;7.7;5;;;;;;;1.91;71.62793;948.8789;;;;
2021/12/19 08:44:32;;;;;;;9.4;5.4;;;;;;;0.03;79.16309;949.0045;;;;
2021/12/19 08:46:58;;;;;;;11.1;6.5;;;;;;;0.4;78.57227;949.003;;;;
2021/12/19 08:49:23;;;;;;;9;6.2;;;;;;;0.18;79.97168;948.9347;;;;
2021/12/19 08:51:50;;;;;;;8.5;5.3;;;;;;;0.19;80.75391;948.9303;;;;
2021/12/19 08:54:15;;;;;;;8.4;5.8;;;;;;;0.07;81.81055;948.9568;;;;
2021/12/19 08:56:42;;;;;;;8.6;5.6;;;;;;;-0.28;83.64551;948.8735;;;;
2021/12/19 08:59:07;;;;;;;11.7;7.2;;;;;;;-0.29;84.40039;948.8369;;;;
2021/12/19 09:01:34;;;;;;;16.1;8.9;;;;;;;-0.33;84.83887;948.8417;;;;
2021/12/19 09:03:59;;;;;;;12.5;8.7;;;;;;;-0.34;84.75684;948.7587;;;;
2021/12/19 09:06:25;;;;;;;12.3;9;;;;;;;-0.3;85.50293;948.7332;;;;
2021/12/19 09:08:50;;;;;;;13.8;8.9;;;;;;;-0.14;85.11035;948.7239;;;;
2021/12/19 09:11:16;;;;;;;10.9;7;;;;;;;0.11;83.91406;948.7249;;;;
2021/12/19 09:13:41;;;;;;;11.5;6.8;;;;;;;0.24;83.25879;948.7725;;;;
2021/12/19 09:16:12;;;;;;;13.9;9.1;;;;;;;;;;;;;
2021/12/19 09:18:37;;;;;;;14.6;9.9;;;;;;;;;;;;;
2021/12/19 09:21:02;;;;;;;24.9;14.4;;;;;;;;;;;;;
2021/12/19 09:23:29;;;;;;;25.9;14;;;;;;;;;;;;;
2021/12/19 09:25:53;;;;;;;15.8;9.8;;;;;;;;;;;;;
2021/12/19 09:28:20;;;;;;;14.8;9.3;;;;;;;;;;;;;
2021/12/19 09:30:45;;;;;;;40.2;21.5;;;;;;;;;;;;;
2021/12/19 09:33:10;;;;;;;14.8;8.3;;;;;;;;;;;;;
2021/12/19 09:35:36;;;;;;;10.6;7.6;;;;;;;;;;;;;
2021/12/19 09:38:01;;;;;;;10.9;7.3;;;;;;;;;;;;;
2021/12/19 09:40:33;;;;;;;7.3;4.9;;;;;;;;;;;;;
2021/12/19 09:43:00;;;;;;;6.1;4;;;;;;;;;;;;;
2021/12/19 09:45:17;;;;;;;7;4.7;;;;;;;;;;;;;
2021/12/19 09:47:42;;;;;;;9.8;6.2;;;;;;;;;;;;;
2021/12/19 09:50:07;;;;;;;9.9;5.8;;;;;;;;;;;;;
2021/12/19 09:52:33;;;;;;;8.2;5.5;;;;;;;;;;;;;
2021/12/19 09:54:58;;;;;;;8.3;5.5;;;;;;;;;;;;;
2021/12/19 09:57:23;;;;;;;8.2;5.3;;;;;;;;;;;;;
2021/12/19 09:59:49;;;;;;;7.1;5;;;;;;;;;;;;;
2021/12/19 10:02:16;;;;;;;7.1;5;;;;;;;;;;;;;
2021/12/19 10:04:40;;;;;;;9.1;6.1;;;;;;;;;;;;;
2021/12/19 10:07:08;;;;;;;9;6.3;;;;;;;;;;;;;
2021/12/19 10:09:32;;;;;;;12.5;7.9;;;;;;;;;;;;;
2021/12/19 10:12:10;;;;;;;6.3;4;;;;;;;;;;;;;
2021/12/19 10:14:23;;;;;;;4.4;3.3;;;;;;;;;;;;;
2021/12/19 10:16:50;;;;;;;5.4;3.8;;;;;;;;;;;;;
2021/12/19 10:19:15;;;;;;;7;4.8;;;;;;;;;;;;;
2021/12/19 10:21:40;;;;;;;6;4;;;;;;;;;;;;;
2021/12/19 10:24:06;;;;;;;5.8;4;;;;;;;;;;;;;
2021/12/19 10:26:31;;;;;;;6.2;3.8;;;;;;;;;;;;;
2021/12/19 10:28:56;;;;;;;7.9;5.8;;;;;;;;;;;;;
2021/12/19 10:31:25;;;;;;;4.3;3.6;;;;;;;;;;;;;
2021/12/19 10:33:48;;;;;;;6;4.2;;;;;;;;;;;;;
2021/12/19 10:36:14;;;;;;;3.9;3.1;;;;;;;;;;;;;
2021/12/19 10:38:39;;;;;;;3.8;2.9;;;;;;;;;;;;;
2021/12/19 10:41:06;;;;;;;6.5;4.1;;;;;;;;;;;;;
2021/12/19 10:43:31;;;;;;;5;3.8;;;;;;;;;;;;;
2021/12/19 10:45:58;;;;;;;7;4.5;;;;;;;;;;;;;
2021/12/19 10:48:22;;;;;;;7.3;4.5;;;;;;;;;;;;;
2021/12/19 10:50:47;;;;;;;9.6;4.1;;;;;;;;;;;;;
2021/12/19 10:53:12;;;;;;;6.2;4.2;;;;;;;;;;;;;
2021/12/19 10:55:37;;;;;;;6.4;4.4;;;;;;;;;;;;;
2021/12/19 10:58:02;;;;;;;5.1;2.9;;;;;;;;;;;;;
2021/12/19 11:19:43;;;;;;;11;3.8;;;;;;;;;;;;;
2021/12/19 11:22:08;;;;;;;11.9;4.7;;;;;;;;;;;;;
2021/12/19 11:24:33;;;;;;;4;2.9;;;;;;;;;;;;;
2021/12/19 11:26:58;;;;;;;3.8;2.9;;;;;;;;;;;;;
2021/12/19 11:29:23;;;;;;;4.5;2.8;;;;;;;;;;;;;
2021/12/19 11:31:50;;;;;;;4.4;2.3;;;;;;;;;;;;;
2021/12/19 11:34:14;;;;;;;5.4;2.9;;;;;;;;;;;;;
2021/12/19 11:36:40;;;;;;;3.7;2.1;;;;;;;;;;;;;
2021/12/19 11:39:06;;;;;;;6.1;3.8;;;;;;;;;;;;;
2021/12/19 11:41:33;;;;;;;10.9;2.9;;;;;;;;;;;;;
2021/12/19 11:44:01;;;;;;;11.3;4.1;;;;;;;;;;;;;
2021/12/19 11:46:24;;;;;;;8.6;3.5;;;;;;;;;;;;;
2021/12/19 11:48:49;;;;;;;4.5;2.3;;;;;;;;;;;;;
2021/12/19 11:51:14;;;;;;;7.8;3.3;;;;;;;;;;;;;
2021/12/19 11:53:41;;;;;;;6.2;2.6;;;;;;;;;;;;;
2021/12/19 11:56:06;;;;;;;8.6;2.6;;;;;;;;;;;;;
2021/12/19 11:58:30;;;;;;;7;2.3;;;;;;;;;;;;;
2021/12/19 12:00:55;;;;;;;5.1;2.1;;;;;;;;;;;;;
2021/12/19 12:03:21;;;;;;;3.3;1.7;;;;;;;;;;;;;
2021/12/19 12:05:45;;;;;;;5.6;2.7;;;;;;;;;;;;;
2021/12/19 12:08:11;;;;;;;4.3;2.6;;;;;;;;;;;;;
2021/12/19 12:10:36;;;;;;;5.5;2.4;;;;;;;;;;;;;
2021/12/19 12:13:01;;;;;;;7;3.1;;;;;;;;;;;;;
2021/12/19 12:15:32;;;;;;;8;3.6;;;;;;;;;;;;;
2021/12/19 12:17:54;;;;;;;6.9;4.2;;;;;;;;;;;;;
2021/12/19 12:20:19;;;;;;;8.8;4.5;;;;;;;;;;;;;
2021/12/19 12:22:47;;;;;;;8.5;5.1;;;;;;;;;;;;;
2021/12/19 12:25:10;;;;;;;10.4;4.6;;;;;;;;;;;;;
2021/12/19 12:27:34;;;;;;;18.3;8.7;;;;;;;;;;;;;
2021/12/19 12:30:00;;;;;;;19.6;9;;;;;;;;;;;;;
2021/12/19 12:32:25;;;;;;;8.2;4;;;;;;;;;;;;;
2021/12/19 12:34:50;;;;;;;4.8;2.9;;;;;;;;;;;;;
2021/12/19 12:37:15;;;;;;;4.1;2.9;;;;;;;;;;;;;
2021/12/19 12:40:02;;;;;;;8.7;4.6;;;;;;;;;;;;;
2021/12/19 12:42:27;;;;;;;8;5.2;;;;;;;;;;;;;
2021/12/19 12:44:52;;;;;;;7.4;4.3;;;;;;;;;;;;;
2021/12/19 12:47:17;;;;;;;5.3;3.1;;;;;;;;;;;;;
2021/12/19 12:49:42;;;;;;;7.4;4.2;;;;;;;;;;;;;
2021/12/19 12:52:08;;;;;;;7.4;4.4;;;;;;;;;;;;;
2021/12/19 12:54:35;;;;;;;8.8;4.4;;;;;;;;;;;;;
2021/12/19 12:56:58;;;;;;;5.5;3.6;;;;;;;;;;;;;
2021/12/19 12:59:23;;;;;;;6;3.8;;;;;;;;;;;;;
2021/12/19 13:01:50;;;;;;;9.4;4.4;;;;;;;;;;;;;
2021/12/19 13:04:15;;;;;;;6;3.5;;;;;;;;;;;;;
2021/12/19 13:06:49;;;;;;;6.9;3.4;;;;;;;;;;;;;
2021/12/19 13:09:14;;;;;;;5.3;3.2;;;;;;;;;;;;;
2021/12/19 13:11:39;;;;;;;4.6;3.1;;;;;;;;;;;;;
2021/12/19 13:14:04;;;;;;;4.7;3.6;;;;;;;;;;;;;
2021/12/19 13:16:29;;;;;;;6.5;3.6;;;;;;;;;;;;;
2021/12/19 13:18:55;;;;;;;5.5;3.4;;;;;;;;;;;;;
2021/12/19 13:21:20;;;;;;;6.5;3.9;;;;;;;;;;;;;
2021/12/19 13:23:58;;;;;;;5.9;4;;;;;;;;;;;;;
2021/12/19 13:34:12;;;;;;;11.2;5.2;;;;;;;;;;;;;
2021/12/19 13:36:37;;;;;;;9;6.9;;;;;;;;;;;;;
2021/12/19 13:39:03;;;;;;;3.3;2.5;;;;;;;;;;;;;
2021/12/19 13:41:28;;;;;;;2.8;2.3;;;;;;;;;;;;;
2021/12/19 13:43:53;;;;;;;3.5;2;;;;;;;;;;;;;
2021/12/19 13:46:19;;;;;;;5.7;2.6;;;;;;;;;;;;;
2021/12/19 13:48:45;;;;;;;8.8;4.6;;;;;;;;;;;;;
2021/12/19 13:51:12;;;;;;;10.5;6.5;;;;;;;;;;;;;
2021/12/19 13:53:34;;;;;;;17;9.2;;;;;;;;;;;;;
2021/12/19 13:55:59;;;;;;;8.8;5.8;;;;;;;;;;;;;
2021/12/19 13:58:24;;;;;;;8.5;5.6;;;;;;;;;;;;;
2021/12/19 14:00:51;;;;;;;7.2;4.8;;;;;;;;;;;;;
2021/12/19 14:03:14;;;;;;;7.5;5.2;;;;;;;;;;;;;
2021/12/19 14:05:41;;;;;;;10.4;6.6;;;;;;;;;;;;;
2021/12/19 14:08:06;;;;;;;17.9;11.2;;;;;;;;;;;;;
2021/12/19 14:10:32;;;;;;;21.3;13.4;;;;;;;;;;;;;
2021/12/19 14:13:08;;;;;;;23.4;14.5;;;;;;;;;;;;;
2021/12/19 14:15:23;;;;;;;30.1;17.9;;;;;;;;;;;;;
2021/12/19 14:17:50;;;;;;;33.6;21.3;;;;;;;;;;;;;
2021/12/19 14:20:13;;;;;;;32.3;21.5;;;;;;;;;;;;;
2021/12/19 14:22:39;;;;;;;31.1;20.2;;;;;;;;;;;;;
2021/12/19 14:25:07;;;;;;;28.1;19;;;;;;;;;;;;;
2021/12/19 14:27:29;;;;;;;35.4;22.8;;;;;;;;;;;;;
2021/12/19 14:29:54;;;;;;;34.9;23.1;;;;;;;;;;;;;
2021/12/19 14:32:19;;;;;;;36.8;24;;;;;;;;;;;;;
2021/12/19 14:34:45;;;;;;;37.8;22.4;;;;;;;;;;;;;
2021/12/19 14:37:10;;;;;;;44.1;25.8;;;;;;;;;;;;;
2021/12/19 14:39:35;;;;;;;52;29.2;;;;;;;;;;;;;
2021/12/19 14:42:00;;;;;;;51;29.4;;;;;;;;;;;;;
2021/12/19 14:44:26;;;;;;;48.8;28.7;;;;;;;;;;;;;
2021/12/19 14:46:51;;;;;;;41.6;24.5;;;;;;;;;;;;;
2021/12/19 14:49:17;;;;;;;31.8;22.6;;;;;;;;;;;;;
2021/12/19 14:51:42;;;;;;;32.8;21.7;;;;;;;;;;;;;
2021/12/19 14:54:08;;;;;;;28.9;20.4;;;;;;;;;;;;;
2021/12/19 14:56:32;;;;;;;28.7;19.8;;;;;;;;;;;;;
2021/12/19 14:58:58;;;;;;;31.6;20.8;;;;;;;;;;;;;
2021/12/19 15:01:23;;;;;;;28.2;17.7;;;;;;;;;;;;;
2021/12/19 15:03:48;;;;;;;32.5;19.5;;;;;;;;;;;;;
2021/12/19 15:06:19;;;;;;;41.3;26;;;;;;;;;;;;;
2021/12/19 15:08:39;;;;;;;36.7;24.8;;;;;;;;;;;;;
2021/12/19 15:11:05;;;;;;;46.9;30.2;;;;;;;;;;;;;
2021/12/19 15:13:30;;;;;;;46.2;30.6;;;;;;;;;;;;;
2021/12/19 15:15:55;;;;;;;48.9;32.3;;;;;;;;;;;;;
2021/12/19 15:18:20;;;;;;;49.4;30.9;;;;;;;;;;;;;
2021/12/19 15:20:45;;;;;;;41.6;27.5;;;;;;;;;;;;;
2021/12/19 15:23:12;;;;;;;45.9;29.9;;;;;;;;;;;;;
2021/12/19 15:25:37;;;;;;;45.5;29.1;;;;;;;;;;;;;
2021/12/19 15:28:02;;;;;;;43.2;28.5;;;;;;;;;;;;;
2021/12/19 15:30:27;;;;;;;38.9;26.2;;;;;;;;;;;;;
2021/12/19 15:32:54;;;;;;;43.8;28.1;;;;;;;;;;;;;
2021/12/19 15:35:18;;;;;;;52.1;33.4;;;;;;;;;;;;;
2021/12/19 15:37:44;;;;;;;57;36.1;;;;;;;;;;;;;
2021/12/19 15:40:09;;;;;;;58.3;36.9;;;;;;;;;;;;;
2021/12/19 15:42:36;;;;;;;54.3;34.5;;;;;;;;;;;;;
2021/12/19 15:45:01;;;;;;;53.9;34.2;;;;;;;;;;;;;
2021/12/19 15:47:27;;;;;;;64.9;41.3;;;;;;;;;;;;;
2021/12/19 15:49:52;;;;;;;57.5;37.2;;;;;;;;;;;;;
2021/12/19 15:52:17;;;;;;;59.7;37.6;;;;;;;;;;;;;
2021/12/19 15:54:42;;;;;;;59.6;38.9;;;;;;;;;;;;;
2021/12/19 15:57:08;;;;;;;59.1;39.1;;;;;;;;;;;;;
2021/12/19 15:59:34;;;;;;;69;43.5;;;;;;;;;;;;;
2021/12/19 16:01:58;;;;;;;69.8;45.1;;;;;;;;;;;;;
2021/12/19 16:04:23;;;;;;;190.8;104.9;;;;;;;;;;;;;
2021/12/19 16:06:48;;;;;;;88.6;55.3;;;;;;;;;;;;;
2021/12/19 16:09:13;;;;;;;96.1;57.6;;;;;;;;;;;;;
2021/12/19 16:11:38;;;;;;;69.5;46.3;;;;;;;;;;;;;
2021/12/19 16:14:03;;;;;;;75.6;50.6;;;;;;;;;;;;;
2021/12/19 16:16:30;;;;;;;86.7;56.9;;;;;;;;;;;;;
2021/12/19 16:18:55;;;;;;;81.9;53.3;;;;;;;;;;;;;
2021/12/19 16:21:20;;;;;;;75.6;48;;;;;;;;;;;;;
2021/12/19 16:23:45;;;;;;;80.3;51.1;;;;;;;;;;;;;
2021/12/19 16:26:10;;;;;;;93;56;;;;;;;;;;;;;
2021/12/19 16:28:37;;;;;;;84.8;53.8;;;;;;;;;;;;;
2021/12/19 16:31:02;;;;;;;84.1;52.5;;;;;;;;;;;;;
2021/12/19 16:33:28;;;;;;;81.7;51.7;;;;;;;;;;;;;
2021/12/19 16:35:53;;;;;;;87.1;54.5;;;;;;;;;;;;;
2021/12/19 16:38:19;;;;;;;94.6;59.4;;;;;;;;;;;;;
2021/12/19 16:40:45;;;;;;;88.9;55.8;;;;;;;;;;;;;
2021/12/19 16:45:35;;;;;;;87.3;53.1;;;;;;;;;;;;;
2021/12/19 16:48:00;;;;;;;139.9;83;;;;;;;;;;;;;
2021/12/19 16:50:25;;;;;;;85;53.6;;;;;;;;;;;;;
2021/12/19 16:52:51;;;;;;;74.9;46.4;;;;;;;;;;;;;
2021/12/19 16:55:17;;;;;;;120.8;79.4;;;;;;;;;;;;;
2021/12/19 16:57:43;;;;;;;85;52.9;;;;;;;;;;;;;
2021/12/19 17:00:08;;;;;;;71.6;46.9;;;;;;;;;;;;;
2021/12/19 17:02:33;;;;;;;66.2;43.5;;;;;;;;;;;;;
2021/12/19 17:04:58;;;;;;;86.8;54.6;;;;;;;;;;;;;
2021/12/19 17:07:23;;;;;;;60.1;39.4;;;;;;;;;;;;;
2021/12/19 17:09:49;;;;;;;66.7;43;;;;;;;;;;;;;
2021/12/19 17:12:16;;;;;;;59.3;38.1;;;;;;;;;;;;;
2021/12/19 17:14:39;;;;;;;70.4;45.4;;;;;;;;;;;;;
2021/12/19 17:17:06;;;;;;;67.4;44.2;;;;;;;;;;;;;
2021/12/19 17:19:31;;;;;;;65.7;42.6;;;;;;;;;;;;;
2021/12/19 17:21:56;;;;;;;63.2;42.5;;;;;;;;;;;;;
2021/12/19 17:24:21;;;;;;;63.6;41.1;;;;;;;;;;;;;
2021/12/19 17:26:46;;;;;;;68.8;44.6;;;;;;;;;;;;;
2021/12/19 17:29:11;;;;;;;74.7;47.5;;;;;;;;;;;;;
2021/12/19 17:31:37;;;;;;;76.4;47.2;;;;;;;;;;;;;
2021/12/19 17:34:02;;;;;;;85.6;54.2;;;;;;;;;;;;;
2021/12/19 17:36:28;;;;;;;105.8;65.4;;;;;;;;;;;;;
2021/12/19 17:38:54;;;;;;;105.4;66.7;;;;;;;;;;;;;
2021/12/19 17:41:20;;;;;;;106.1;64.6;;;;;;;;;;;;;
2021/12/19 17:43:46;;;;;;;110;65.3;;;;;;;;;;;;;
2021/12/19 17:46:11;;;;;;;97.9;61.8;;;;;;;;;;;;;
2021/12/19 17:48:35;;;;;;;90.1;56.6;;;;;;;;;;;;;
2021/12/19 17:51:01;;;;;;;93.7;56.8;;;;;;;;;;;;;
2021/12/19 17:53:26;;;;;;;90.4;56.3;;;;;;;;;;;;;
2021/12/19 17:55:51;;;;;;;92;58.3;;;;;;;;;;;;;
2021/12/19 17:58:16;;;;;;;81.3;53.1;;;;;;;;;;;;;
2021/12/19 18:00:41;;;;;;;115.5;75.8;;;;;;;;;;;;;
2021/12/19 18:03:07;;;;;;;81.7;52.7;;;;;;;;;;;;;
2021/12/19 18:05:35;;;;;;;74.5;48.9;;;;;;;;;;;;;
2021/12/19 18:07:58;;;;;;;69.1;44;;;;;;;;;;;;;
2021/12/19 18:10:23;;;;;;;67.3;41.9;;;;;;;;;;;;;
2021/12/19 18:12:49;;;;;;;68.2;42.3;;;;;;;;;;;;;
2021/12/19 18:15:16;;;;;;;61.3;39.6;;;;;;;;;;;;;
2021/12/19 18:17:39;;;;;;;64.6;37.2;;;;;;;;;;;;;
2021/12/19 18:20:09;;;;;;;61.6;36.7;;;;;;;;;;;;;
2021/12/19 18:22:33;;;;;;;58.9;37.5;;;;;;;;;;;;;
2021/12/19 18:24:58;;;;;;;71.2;39.9;;;;;;;;;;;;;
2021/12/19 18:27:23;;;;;;;64.8;39.4;;;;;;;;;;;;;
2021/12/19 18:29:51;;;;;;;68.8;41.5;;;;;;;;;;;;;
2021/12/19 18:32:16;;;;;;;74.6;42.8;;;;;;;;;;;;;
2021/12/19 18:34:46;;;;;;;74.3;46.6;;;;;;;;;;;;;
2021/12/19 18:37:10;;;;;;;79;47.7;;;;;;;;;;;;;
2021/12/19 18:39:38;;;;;;;74.6;45.1;;;;;;;;;;;;;
2021/12/19 18:42:03;;;;;;;98.5;58.8;;;;;;;;;;;;;
2021/12/19 18:44:29;;;;;;;78.5;47.6;;;;;;;;;;;;;
2021/12/19 18:46:57;;;;;;;77.1;48.3;;;;;;;;;;;;;
2021/12/19 18:49:24;;;;;;;75.6;46.5;;;;;;;;;;;;;
2021/12/19 18:51:47;;;;;;;80.3;52.9;;;;;;;;;;;;;
2021/12/19 18:54:07;;;;;;;69.4;41.2;;;;;;;;;;;;;
2021/12/19 18:56:27;;;;;;;66.4;38.9;;;;;;;;;;;;;
2021/12/19 18:59:02;;;;;;;57.3;36.1;;;;;;;;;;;;;
2021/12/19 19:01:23;;;;;;;53.5;32.7;;;;;;;;;;;;;
2021/12/19 19:04:08;;;;;;;46.5;29.8;;;;;;;;;;;;;
2021/12/19 19:06:18;;;;;;;45.7;30.3;;;;;;;;;;;;;
2021/12/19 19:08:32;;;;;;;50.4;31.1;;;;;;;;;;;;;
2021/12/19 19:10:58;;;;;;;51.3;31.6;;;;;;;;;;;;;
2021/12/19 19:13:24;;;;;;;55.2;31.1;;;;;;;;;;;;;
2021/12/19 19:15:53;;;;;;;52;31.6;;;;;;;;;;;;;
2021/12/19 19:18:19;;;;;;;45.9;28.9;;;;;;;;;;;;;
2021/12/19 19:20:44;;;;;;;49.6;30.1;;;;;;;;;;;;;
2021/12/19 19:23:09;;;;;;;44.8;28.3;;;;;;;;;;;;;
2021/12/19 19:25:37;;;;;;;185.4;117.6;;;;;;;;;;;;;
2021/12/19 19:28:00;;;;;;;71.2;45.7;;;;;;;;;;;;;
2021/12/19 19:30:25;;;;;;;47.2;29.9;;;;;;;;;;;;;
2021/12/19 19:32:51;;;;;;;47.9;31.6;;;;;;;;;;;;;
2021/12/19 19:35:15;;;;;;;46.7;30.5;;;;;;;;;;;;;